sensor_id;sensor_type;location;lat;lon;timestamp;P1;durP1;ratioP1;P2;durP2;ratioP2
59930;SDS011;45790;51.538;6.736;2024-01-06T00:02:12;7.47;;;6.18;;
59930;SDS011;45790;51.538;6.736;2024-01-06T00:04:37;8.65;;;6.55;;
59930;SDS011;45790;51.538;6.736;2024-01-06T00:07:03;7.45;;;5.85;;
59930;SDS011;45790;51.538;6.736;2024-01-06T00:09:28;7.07;;;5.80;;
59930;SDS011;45790;51.538;6.736;2024-01-06T00:11:53;7.03;;;5.73;;
59930;SDS011;45790;51.538;6.736;2024-01-06T00:14:18;7.07;;;5.82;;
59930;SDS011;45790;51.538;6.736;2024-01-06T00:16:44;8.07;;;6.23;;
59930;SDS011;45790;51.538;6.736;2024-01-06T00:19:09;7.57;;;6.23;;
59930;SDS011;45790;51.538;6.736;2024-01-06T00:21:34;9.77;;;6.63;;
59930;SDS011;45790;51.538;6.736;2024-01-06T00:23:59;8.33;;;6.57;;
59930;SDS011;45790;51.538;6.736;2024-01-06T00:26:24;10.68;;;7.05;;
59930;SDS011;45790;51.538;6.736;2024-01-06T00:28:50;9.13;;;7.15;;
59930;SDS011;45790;51.538;6.736;2024-01-06T00:31:15;8.85;;;6.63;;
59930;SDS011;45790;51.538;6.736;2024-01-06T00:33:43;9.38;;;7.13;;
59930;SDS011;45790;51.538;6.736;2024-01-06T00:36:08;9.75;;;8.10;;
59930;SDS011;45790;51.538;6.736;2024-01-06T00:38:34;8.98;;;6.90;;
59930;SDS011;45790;51.538;6.736;2024-01-06T00:41:00;10.35;;;8.00;;
59930;SDS011;45790;51.538;6.736;2024-01-06T00:43:25;10.65;;;7.97;;
59930;SDS011;45790;51.538;6.736;2024-01-06T00:45:50;11.85;;;8.38;;
59930;SDS011;45790;51.538;6.736;2024-01-06T00:48:15;11.27;;;8.90;;
59930;SDS011;45790;51.538;6.736;2024-01-06T00:50:40;10.80;;;8.70;;
59930;SDS011;45790;51.538;6.736;2024-01-06T00:53:06;11.03;;;9.00;;
59930;SDS011;45790;51.538;6.736;2024-01-06T00:55:31;11.23;;;8.50;;
59930;SDS011;45790;51.538;6.736;2024-01-06T00:57:56;11.00;;;8.88;;
59930;SDS011;45790;51.538;6.736;2024-01-06T01:00:21;13.85;;;9.23;;
59930;SDS011;45790;51.538;6.736;2024-01-06T01:02:47;11.80;;;9.15;;
59930;SDS011;45790;51.538;6.736;2024-01-06T01:05:12;12.82;;;9.38;;
59930;SDS011;45790;51.538;6.736;2024-01-06T01:07:38;12.47;;;9.17;;
59930;SDS011;45790;51.538;6.736;2024-01-06T01:10:03;13.23;;;9.57;;
59930;SDS011;45790;51.538;6.736;2024-01-06T01:12:29;13.40;;;9.50;;
59930;SDS011;45790;51.538;6.736;2024-01-06T01:14:54;12.52;;;9.43;;
59930;SDS011;45790;51.538;6.736;2024-01-06T01:17:20;13.57;;;9.67;;
59930;SDS011;45790;51.538;6.736;2024-01-06T01:19:45;13.30;;;10.07;;
59930;SDS011;45790;51.538;6.736;2024-01-06T01:22:10;14.55;;;10.18;;
59930;SDS011;45790;51.538;6.736;2024-01-06T01:24:36;13.80;;;9.90;;
59930;SDS011;45790;51.538;6.736;2024-01-06T01:27:01;13.73;;;10.40;;
59930;SDS011;45790;51.538;6.736;2024-01-06T01:29:26;14.40;;;10.93;;
59930;SDS011;45790;51.538;6.736;2024-01-06T01:31:51;14.73;;;10.80;;
59930;SDS011;45790;51.538;6.736;2024-01-06T01:34:17;16.55;;;11.02;;
59930;SDS011;45790;51.538;6.736;2024-01-06T01:36:42;14.45;;;10.50;;
59930;SDS011;45790;51.538;6.736;2024-01-06T01:39:07;13.55;;;9.93;;
59930;SDS011;45790;51.538;6.736;2024-01-06T01:41:33;15.00;;;11.40;;
59930;SDS011;45790;51.538;6.736;2024-01-06T01:43:58;14.30;;;10.77;;
59930;SDS011;45790;51.538;6.736;2024-01-06T01:46:26;14.63;;;10.53;;
59930;SDS011;45790;51.538;6.736;2024-01-06T01:48:53;15.90;;;11.68;;
59930;SDS011;45790;51.538;6.736;2024-01-06T01:51:19;15.43;;;11.70;;
59930;SDS011;45790;51.538;6.736;2024-01-06T01:53:44;15.98;;;11.63;;
59930;SDS011;45790;51.538;6.736;2024-01-06T01:56:10;15.27;;;11.07;;
59930;SDS011;45790;51.538;6.736;2024-01-06T01:58:35;16.38;;;11.80;;
59930;SDS011;45790;51.538;6.736;2024-01-06T02:01:01;15.82;;;11.43;;
59930;SDS011;45790;51.538;6.736;2024-01-06T02:03:26;13.70;;;9.43;;
59930;SDS011;45790;51.538;6.736;2024-01-06T02:05:55;17.38;;;12.38;;
59930;SDS011;45790;51.538;6.736;2024-01-06T02:08:20;18.27;;;12.45;;
59930;SDS011;45790;51.538;6.736;2024-01-06T02:10:45;17.35;;;12.38;;
59930;SDS011;45790;51.538;6.736;2024-01-06T02:13:11;15.05;;;10.68;;
59930;SDS011;45790;51.538;6.736;2024-01-06T02:15:36;15.48;;;11.15;;
59930;SDS011;45790;51.538;6.736;2024-01-06T02:18:02;15.73;;;11.27;;
59930;SDS011;45790;51.538;6.736;2024-01-06T02:20:27;14.60;;;10.13;;
59930;SDS011;45790;51.538;6.736;2024-01-06T02:22:54;17.00;;;11.43;;
59930;SDS011;45790;51.538;6.736;2024-01-06T02:25:19;14.90;;;10.43;;
59930;SDS011;45790;51.538;6.736;2024-01-06T02:27:44;15.05;;;10.27;;
59930;SDS011;45790;51.538;6.736;2024-01-06T02:30:10;16.57;;;10.60;;
59930;SDS011;45790;51.538;6.736;2024-01-06T02:32:35;13.43;;;9.68;;
59930;SDS011;45790;51.538;6.736;2024-01-06T02:35:00;14.40;;;9.48;;
59930;SDS011;45790;51.538;6.736;2024-01-06T02:37:25;13.55;;;9.35;;
59930;SDS011;45790;51.538;6.736;2024-01-06T02:39:52;13.25;;;9.10;;
59930;SDS011;45790;51.538;6.736;2024-01-06T02:42:17;13.48;;;8.60;;
59930;SDS011;45790;51.538;6.736;2024-01-06T02:44:42;13.50;;;8.85;;
59930;SDS011;45790;51.538;6.736;2024-01-06T02:47:07;13.20;;;8.27;;
59930;SDS011;45790;51.538;6.736;2024-01-06T02:49:33;11.98;;;7.70;;
59930;SDS011;45790;51.538;6.736;2024-01-06T02:51:58;11.37;;;7.10;;
59930;SDS011;45790;51.538;6.736;2024-01-06T02:54:23;10.87;;;7.00;;
59930;SDS011;45790;51.538;6.736;2024-01-06T02:56:48;10.13;;;6.47;;
59930;SDS011;45790;51.538;6.736;2024-01-06T02:59:13;11.20;;;7.25;;
59930;SDS011;45790;51.538;6.736;2024-01-06T03:01:39;10.85;;;7.10;;
59930;SDS011;45790;51.538;6.736;2024-01-06T03:04:04;9.55;;;6.30;;
59930;SDS011;45790;51.538;6.736;2024-01-06T03:06:29;11.23;;;7.15;;
59930;SDS011;45790;51.538;6.736;2024-01-06T03:08:54;10.10;;;6.18;;
59930;SDS011;45790;51.538;6.736;2024-01-06T03:11:19;10.77;;;6.57;;
59930;SDS011;45790;51.538;6.736;2024-01-06T03:13:45;12.38;;;7.68;;
59930;SDS011;45790;51.538;6.736;2024-01-06T03:16:11;10.45;;;6.80;;
59930;SDS011;45790;51.538;6.736;2024-01-06T03:18:36;10.43;;;6.82;;
59930;SDS011;45790;51.538;6.736;2024-01-06T03:21:01;10.45;;;6.82;;
59930;SDS011;45790;51.538;6.736;2024-01-06T03:23:27;11.38;;;7.13;;
59930;SDS011;45790;51.538;6.736;2024-01-06T03:25:52;9.90;;;6.70;;
59930;SDS011;45790;51.538;6.736;2024-01-06T03:28:17;10.45;;;6.32;;
59930;SDS011;45790;51.538;6.736;2024-01-06T03:30:42;11.20;;;7.28;;
59930;SDS011;45790;51.538;6.736;2024-01-06T03:33:07;11.35;;;7.15;;
59930;SDS011;45790;51.538;6.736;2024-01-06T03:35:33;12.25;;;7.10;;
59930;SDS011;45790;51.538;6.736;2024-01-06T03:37:58;12.85;;;7.28;;
59930;SDS011;45790;51.538;6.736;2024-01-06T03:40:23;13.10;;;7.43;;
59930;SDS011;45790;51.538;6.736;2024-01-06T03:42:48;12.15;;;6.97;;
59930;SDS011;45790;51.538;6.736;2024-01-06T03:45:13;11.75;;;7.30;;
59930;SDS011;45790;51.538;6.736;2024-01-06T03:47:39;11.10;;;6.93;;
59930;SDS011;45790;51.538;6.736;2024-01-06T03:50:04;11.17;;;7.30;;
59930;SDS011;45790;51.538;6.736;2024-01-06T03:52:29;11.75;;;7.07;;
59930;SDS011;45790;51.538;6.736;2024-01-06T03:54:55;11.30;;;6.93;;
59930;SDS011;45790;51.538;6.736;2024-01-06T03:57:20;10.37;;;6.53;;
59930;SDS011;45790;51.538;6.736;2024-01-06T03:59:45;11.93;;;6.75;;
59930;SDS011;45790;51.538;6.736;2024-01-06T04:02:10;10.80;;;6.93;;
59930;SDS011;45790;51.538;6.736;2024-01-06T04:04:35;10.17;;;6.50;;
59930;SDS011;45790;51.538;6.736;2024-01-06T04:07:00;10.03;;;6.73;;
59930;SDS011;45790;51.538;6.736;2024-01-06T04:09:26;10.15;;;6.85;;
59930;SDS011;45790;51.538;6.736;2024-01-06T04:11:52;11.52;;;7.13;;
59930;SDS011;45790;51.538;6.736;2024-01-06T04:14:17;15.63;;;6.97;;
59930;SDS011;45790;51.538;6.736;2024-01-06T04:16:42;10.70;;;6.70;;
59930;SDS011;45790;51.538;6.736;2024-01-06T04:19:07;12.15;;;6.65;;
59930;SDS011;45790;51.538;6.736;2024-01-06T04:21:33;11.48;;;7.15;;
59930;SDS011;45790;51.538;6.736;2024-01-06T04:23:58;11.27;;;7.07;;
59930;SDS011;45790;51.538;6.736;2024-01-06T04:26:24;10.87;;;7.43;;
59930;SDS011;45790;51.538;6.736;2024-01-06T04:28:49;12.75;;;7.35;;
59930;SDS011;45790;51.538;6.736;2024-01-06T04:31:14;11.40;;;7.07;;
59930;SDS011;45790;51.538;6.736;2024-01-06T04:33:39;12.05;;;6.93;;
59930;SDS011;45790;51.538;6.736;2024-01-06T04:36:05;12.05;;;7.53;;
59930;SDS011;45790;51.538;6.736;2024-01-06T04:38:30;12.20;;;7.68;;
59930;SDS011;45790;51.538;6.736;2024-01-06T04:40:55;11.63;;;7.43;;
59930;SDS011;45790;51.538;6.736;2024-01-06T04:43:21;12.00;;;7.85;;
59930;SDS011;45790;51.538;6.736;2024-01-06T04:45:46;11.73;;;7.22;;
59930;SDS011;45790;51.538;6.736;2024-01-06T04:48:11;10.97;;;7.10;;
59930;SDS011;45790;51.538;6.736;2024-01-06T04:50:36;11.77;;;7.85;;
59930;SDS011;45790;51.538;6.736;2024-01-06T04:53:02;13.90;;;8.07;;
59930;SDS011;45790;51.538;6.736;2024-01-06T04:55:27;13.98;;;8.23;;
59930;SDS011;45790;51.538;6.736;2024-01-06T04:57:52;13.07;;;8.45;;
59930;SDS011;45790;51.538;6.736;2024-01-06T05:00:18;13.13;;;8.43;;
59930;SDS011;45790;51.538;6.736;2024-01-06T05:02:43;14.15;;;8.27;;
59930;SDS011;45790;51.538;6.736;2024-01-06T05:05:08;13.82;;;8.45;;
59930;SDS011;45790;51.538;6.736;2024-01-06T05:07:33;13.15;;;7.88;;
59930;SDS011;45790;51.538;6.736;2024-01-06T05:09:59;11.47;;;7.53;;
59930;SDS011;45790;51.538;6.736;2024-01-06T05:12:24;14.67;;;8.30;;
59930;SDS011;45790;51.538;6.736;2024-01-06T05:14:49;15.20;;;9.00;;
59930;SDS011;45790;51.538;6.736;2024-01-06T05:17:14;12.20;;;7.80;;
59930;SDS011;45790;51.538;6.736;2024-01-06T05:19:39;13.25;;;8.80;;
59930;SDS011;45790;51.538;6.736;2024-01-06T05:22:04;13.37;;;8.87;;
59930;SDS011;45790;51.538;6.736;2024-01-06T05:24:30;14.30;;;8.75;;
59930;SDS011;45790;51.538;6.736;2024-01-06T05:26:55;13.55;;;8.65;;
59930;SDS011;45790;51.538;6.736;2024-01-06T05:29:20;12.25;;;7.88;;
59930;SDS011;45790;51.538;6.736;2024-01-06T05:31:45;12.95;;;8.23;;
59930;SDS011;45790;51.538;6.736;2024-01-06T05:34:12;13.25;;;8.40;;
59930;SDS011;45790;51.538;6.736;2024-01-06T05:36:37;15.23;;;9.00;;
59930;SDS011;45790;51.538;6.736;2024-01-06T05:39:03;14.47;;;9.50;;
59930;SDS011;45790;51.538;6.736;2024-01-06T05:41:28;12.57;;;8.23;;
59930;SDS011;45790;51.538;6.736;2024-01-06T05:43:53;13.82;;;9.30;;
59930;SDS011;45790;51.538;6.736;2024-01-06T05:46:22;12.00;;;8.27;;
59930;SDS011;45790;51.538;6.736;2024-01-06T05:48:47;14.07;;;8.85;;
59930;SDS011;45790;51.538;6.736;2024-01-06T05:51:13;12.50;;;7.88;;
59930;SDS011;45790;51.538;6.736;2024-01-06T05:53:38;14.73;;;9.53;;
59930;SDS011;45790;51.538;6.736;2024-01-06T05:56:03;15.97;;;8.93;;
59930;SDS011;45790;51.538;6.736;2024-01-06T05:58:28;13.68;;;8.75;;
59930;SDS011;45790;51.538;6.736;2024-01-06T06:00:53;12.90;;;8.90;;
59930;SDS011;45790;51.538;6.736;2024-01-06T06:03:19;11.80;;;7.65;;
59930;SDS011;45790;51.538;6.736;2024-01-06T06:05:44;13.10;;;8.18;;
59930;SDS011;45790;51.538;6.736;2024-01-06T06:08:10;12.70;;;7.95;;
59930;SDS011;45790;51.538;6.736;2024-01-06T06:10:35;11.85;;;7.70;;
59930;SDS011;45790;51.538;6.736;2024-01-06T06:13:16;13.10;;;8.50;;
59930;SDS011;45790;51.538;6.736;2024-01-06T06:15:41;11.20;;;8.07;;
59930;SDS011;45790;51.538;6.736;2024-01-06T06:18:06;11.30;;;7.60;;
59930;SDS011;45790;51.538;6.736;2024-01-06T06:20:32;12.30;;;8.18;;
59930;SDS011;45790;51.538;6.736;2024-01-06T06:22:57;12.85;;;8.45;;
59930;SDS011;45790;51.538;6.736;2024-01-06T06:25:22;12.52;;;8.50;;
59930;SDS011;45790;51.538;6.736;2024-01-06T06:27:47;12.70;;;8.83;;
59930;SDS011;45790;51.538;6.736;2024-01-06T06:30:12;11.83;;;8.50;;
59930;SDS011;45790;51.538;6.736;2024-01-06T06:32:38;13.57;;;8.30;;
59930;SDS011;45790;51.538;6.736;2024-01-06T06:35:03;11.52;;;8.68;;
59930;SDS011;45790;51.538;6.736;2024-01-06T06:37:28;13.60;;;9.00;;
59930;SDS011;45790;51.538;6.736;2024-01-06T06:39:54;13.63;;;9.82;;
59930;SDS011;45790;51.538;6.736;2024-01-06T06:42:19;13.65;;;9.45;;
59930;SDS011;45790;51.538;6.736;2024-01-06T06:44:44;11.65;;;8.45;;
59930;SDS011;45790;51.538;6.736;2024-01-06T06:47:09;11.80;;;8.63;;
59930;SDS011;45790;51.538;6.736;2024-01-06T06:49:34;17.07;;;11.43;;
59930;SDS011;45790;51.538;6.736;2024-01-06T06:52:00;25.77;;;16.17;;
59930;SDS011;45790;51.538;6.736;2024-01-06T06:54:25;13.98;;;9.15;;
59930;SDS011;45790;51.538;6.736;2024-01-06T06:56:50;13.82;;;9.32;;
59930;SDS011;45790;51.538;6.736;2024-01-06T06:59:15;12.10;;;8.77;;
59930;SDS011;45790;51.538;6.736;2024-01-06T07:01:40;12.77;;;8.80;;
59930;SDS011;45790;51.538;6.736;2024-01-06T07:04:06;12.93;;;9.15;;
59930;SDS011;45790;51.538;6.736;2024-01-06T07:06:31;13.10;;;8.63;;
59930;SDS011;45790;51.538;6.736;2024-01-06T07:08:56;14.52;;;8.90;;
59930;SDS011;45790;51.538;6.736;2024-01-06T07:11:21;15.23;;;9.15;;
59930;SDS011;45790;51.538;6.736;2024-01-06T07:13:47;14.07;;;8.88;;
59930;SDS011;45790;51.538;6.736;2024-01-06T07:16:12;16.67;;;9.50;;
59930;SDS011;45790;51.538;6.736;2024-01-06T07:18:37;14.10;;;8.82;;
59930;SDS011;45790;51.538;6.736;2024-01-06T07:21:06;14.23;;;9.27;;
59930;SDS011;45790;51.538;6.736;2024-01-06T07:23:32;14.05;;;8.73;;
59930;SDS011;45790;51.538;6.736;2024-01-06T07:25:57;16.27;;;10.02;;
59930;SDS011;45790;51.538;6.736;2024-01-06T07:28:23;17.08;;;10.07;;
59930;SDS011;45790;51.538;6.736;2024-01-06T07:30:48;15.30;;;9.95;;
59930;SDS011;45790;51.538;6.736;2024-01-06T07:33:13;20.33;;;11.30;;
59930;SDS011;45790;51.538;6.736;2024-01-06T07:35:38;17.77;;;10.88;;
59930;SDS011;45790;51.538;6.736;2024-01-06T07:38:08;16.90;;;10.67;;
59930;SDS011;45790;51.538;6.736;2024-01-06T07:40:34;16.27;;;10.55;;
59930;SDS011;45790;51.538;6.736;2024-01-06T07:43:00;19.40;;;11.75;;
59930;SDS011;45790;51.538;6.736;2024-01-06T07:45:25;21.40;;;12.05;;
59930;SDS011;45790;51.538;6.736;2024-01-06T07:47:50;19.45;;;12.43;;
59930;SDS011;45790;51.538;6.736;2024-01-06T07:50:15;21.93;;;11.70;;
59930;SDS011;45790;51.538;6.736;2024-01-06T07:52:40;19.97;;;11.13;;
59930;SDS011;45790;51.538;6.736;2024-01-06T07:55:06;22.80;;;12.27;;
59930;SDS011;45790;51.538;6.736;2024-01-06T07:57:31;21.80;;;12.27;;
59930;SDS011;45790;51.538;6.736;2024-01-06T07:59:56;16.93;;;10.20;;
59930;SDS011;45790;51.538;6.736;2024-01-06T08:02:21;17.63;;;11.48;;
59930;SDS011;45790;51.538;6.736;2024-01-06T08:04:46;23.70;;;12.10;;
59930;SDS011;45790;51.538;6.736;2024-01-06T08:07:12;21.45;;;12.07;;
59930;SDS011;45790;51.538;6.736;2024-01-06T08:09:38;21.27;;;13.07;;
59930;SDS011;45790;51.538;6.736;2024-01-06T08:12:03;21.38;;;12.70;;
59930;SDS011;45790;51.538;6.736;2024-01-06T08:14:29;21.98;;;12.30;;
59930;SDS011;45790;51.538;6.736;2024-01-06T08:16:54;22.10;;;11.70;;
59930;SDS011;45790;51.538;6.736;2024-01-06T08:19:19;19.95;;;11.43;;
59930;SDS011;45790;51.538;6.736;2024-01-06T08:21:44;21.88;;;11.82;;
59930;SDS011;45790;51.538;6.736;2024-01-06T08:24:10;21.05;;;12.18;;
59930;SDS011;45790;51.538;6.736;2024-01-06T08:26:35;19.77;;;10.98;;
59930;SDS011;45790;51.538;6.736;2024-01-06T08:29:00;16.83;;;10.33;;
59930;SDS011;45790;51.538;6.736;2024-01-06T08:31:25;18.35;;;10.07;;
59930;SDS011;45790;51.538;6.736;2024-01-06T08:33:50;17.80;;;10.70;;
59930;SDS011;45790;51.538;6.736;2024-01-06T08:36:16;14.53;;;9.20;;
59930;SDS011;45790;51.538;6.736;2024-01-06T08:38:41;18.13;;;9.68;;
59930;SDS011;45790;51.538;6.736;2024-01-06T08:41:06;14.48;;;8.80;;
59930;SDS011;45790;51.538;6.736;2024-01-06T08:43:31;17.25;;;9.30;;
59930;SDS011;45790;51.538;6.736;2024-01-06T08:45:57;18.20;;;9.63;;
59930;SDS011;45790;51.538;6.736;2024-01-06T08:48:22;17.10;;;9.88;;
59930;SDS011;45790;51.538;6.736;2024-01-06T08:50:47;16.65;;;8.88;;
59930;SDS011;45790;51.538;6.736;2024-01-06T08:53:12;18.13;;;9.10;;
59930;SDS011;45790;51.538;6.736;2024-01-06T08:55:38;14.95;;;8.57;;
59930;SDS011;45790;51.538;6.736;2024-01-06T08:58:03;16.17;;;9.02;;
59930;SDS011;45790;51.538;6.736;2024-01-06T09:00:28;16.08;;;9.20;;
59930;SDS011;45790;51.538;6.736;2024-01-06T09:02:53;16.13;;;9.40;;
59930;SDS011;45790;51.538;6.736;2024-01-06T09:05:19;15.63;;;9.32;;
59930;SDS011;45790;51.538;6.736;2024-01-06T09:07:44;16.27;;;8.90;;
59930;SDS011;45790;51.538;6.736;2024-01-06T09:10:14;14.82;;;8.20;;
59930;SDS011;45790;51.538;6.736;2024-01-06T09:12:39;15.95;;;8.15;;
59930;SDS011;45790;51.538;6.736;2024-01-06T09:15:04;14.68;;;8.00;;
59930;SDS011;45790;51.538;6.736;2024-01-06T09:17:30;12.50;;;7.60;;
59930;SDS011;45790;51.538;6.736;2024-01-06T09:19:56;14.57;;;9.07;;
59930;SDS011;45790;51.538;6.736;2024-01-06T09:22:21;14.45;;;9.05;;
59930;SDS011;45790;51.538;6.736;2024-01-06T09:24:46;15.68;;;9.50;;
59930;SDS011;45790;51.538;6.736;2024-01-06T09:27:12;14.55;;;9.27;;
59930;SDS011;45790;51.538;6.736;2024-01-06T09:29:37;17.98;;;10.25;;
59930;SDS011;45790;51.538;6.736;2024-01-06T09:32:03;16.48;;;10.13;;
59930;SDS011;45790;51.538;6.736;2024-01-06T09:34:28;16.80;;;9.60;;
59930;SDS011;45790;51.538;6.736;2024-01-06T09:36:54;15.57;;;9.85;;
59930;SDS011;45790;51.538;6.736;2024-01-06T09:39:19;17.48;;;10.35;;
59930;SDS011;45790;51.538;6.736;2024-01-06T09:41:44;16.08;;;9.85;;
59930;SDS011;45790;51.538;6.736;2024-01-06T09:44:09;15.88;;;9.77;;
59930;SDS011;45790;51.538;6.736;2024-01-06T09:46:34;17.10;;;10.30;;
59930;SDS011;45790;51.538;6.736;2024-01-06T09:49:01;17.98;;;10.32;;
59930;SDS011;45790;51.538;6.736;2024-01-06T09:51:26;19.23;;;10.15;;
59930;SDS011;45790;51.538;6.736;2024-01-06T09:56:20;17.38;;;10.40;;
59930;SDS011;45790;51.538;6.736;2024-01-06T09:58:45;19.40;;;11.52;;
59930;SDS011;45790;51.538;6.736;2024-01-06T10:01:11;20.23;;;11.32;;
59930;SDS011;45790;51.538;6.736;2024-01-06T10:03:36;19.30;;;11.25;;
59930;SDS011;45790;51.538;6.736;2024-01-06T10:06:01;19.85;;;11.90;;
59930;SDS011;45790;51.538;6.736;2024-01-06T10:08:29;22.67;;;12.15;;
59930;SDS011;45790;51.538;6.736;2024-01-06T10:10:54;19.98;;;12.02;;
59930;SDS011;45790;51.538;6.736;2024-01-06T10:13:19;21.67;;;12.55;;
59930;SDS011;45790;51.538;6.736;2024-01-06T10:15:44;20.17;;;11.93;;
59930;SDS011;45790;51.538;6.736;2024-01-06T10:18:11;20.27;;;11.57;;
59930;SDS011;45790;51.538;6.736;2024-01-06T10:20:36;20.05;;;12.18;;
59930;SDS011;45790;51.538;6.736;2024-01-06T10:23:05;20.38;;;11.73;;
59930;SDS011;45790;51.538;6.736;2024-01-06T10:25:30;20.98;;;11.30;;
59930;SDS011;45790;51.538;6.736;2024-01-06T10:27:56;21.35;;;12.65;;
59930;SDS011;45790;51.538;6.736;2024-01-06T10:30:21;21.05;;;11.90;;
59930;SDS011;45790;51.538;6.736;2024-01-06T10:32:46;21.57;;;12.03;;
59930;SDS011;45790;51.538;6.736;2024-01-06T10:35:11;23.38;;;12.35;;
59930;SDS011;45790;51.538;6.736;2024-01-06T10:37:36;23.00;;;12.07;;
59930;SDS011;45790;51.538;6.736;2024-01-06T10:42:30;20.17;;;11.70;;
59930;SDS011;45790;51.538;6.736;2024-01-06T10:44:56;19.20;;;11.55;;
59930;SDS011;45790;51.538;6.736;2024-01-06T10:47:21;21.05;;;11.70;;
59930;SDS011;45790;51.538;6.736;2024-01-06T10:49:47;21.25;;;11.82;;
59930;SDS011;45790;51.538;6.736;2024-01-06T10:52:12;19.75;;;11.50;;
59930;SDS011;45790;51.538;6.736;2024-01-06T10:54:37;17.70;;;11.35;;
59930;SDS011;45790;51.538;6.736;2024-01-06T10:57:04;19.65;;;11.48;;
59930;SDS011;45790;51.538;6.736;2024-01-06T10:59:31;19.00;;;10.88;;
59930;SDS011;45790;51.538;6.736;2024-01-06T11:01:57;17.80;;;10.70;;
59930;SDS011;45790;51.538;6.736;2024-01-06T11:04:23;19.73;;;11.00;;
59930;SDS011;45790;51.538;6.736;2024-01-06T11:06:49;18.98;;;11.40;;
59930;SDS011;45790;51.538;6.736;2024-01-06T11:09:19;18.80;;;11.40;;
59930;SDS011;45790;51.538;6.736;2024-01-06T11:11:46;18.23;;;10.75;;
59930;SDS011;45790;51.538;6.736;2024-01-06T11:14:22;21.00;;;11.00;;
59930;SDS011;45790;51.538;6.736;2024-01-06T11:16:47;18.35;;;10.82;;
59930;SDS011;45790;51.538;6.736;2024-01-06T11:21:57;17.52;;;10.55;;
59930;SDS011;45790;51.538;6.736;2024-01-06T11:24:42;16.58;;;9.77;;
59930;SDS011;45790;51.538;6.736;2024-01-06T11:27:08;17.52;;;10.60;;
59930;SDS011;45790;51.538;6.736;2024-01-06T11:29:34;19.65;;;11.20;;
59930;SDS011;45790;51.538;6.736;2024-01-06T11:32:43;17.35;;;10.25;;
59930;SDS011;45790;51.538;6.736;2024-01-06T11:34:52;17.40;;;10.30;;
59930;SDS011;45790;51.538;6.736;2024-01-06T11:37:24;17.60;;;10.40;;
59930;SDS011;45790;51.538;6.736;2024-01-06T11:39:50;16.95;;;9.93;;
59930;SDS011;45790;51.538;6.736;2024-01-06T11:42:15;17.02;;;9.43;;
59930;SDS011;45790;51.538;6.736;2024-01-06T11:44:43;16.67;;;9.43;;
59930;SDS011;45790;51.538;6.736;2024-01-06T11:47:08;17.30;;;9.70;;
59930;SDS011;45790;51.538;6.736;2024-01-06T11:49:36;16.70;;;9.73;;
59930;SDS011;45790;51.538;6.736;2024-01-06T11:52:02;18.10;;;10.43;;
59930;SDS011;45790;51.538;6.736;2024-01-06T11:54:27;17.13;;;9.82;;
59930;SDS011;45790;51.538;6.736;2024-01-06T11:56:52;16.80;;;8.88;;
59930;SDS011;45790;51.538;6.736;2024-01-06T11:59:19;14.20;;;8.82;;
59930;SDS011;45790;51.538;6.736;2024-01-06T12:01:45;15.27;;;9.55;;
59930;SDS011;45790;51.538;6.736;2024-01-06T12:04:10;15.25;;;9.48;;
59930;SDS011;45790;51.538;6.736;2024-01-06T12:06:38;14.82;;;9.45;;
59930;SDS011;45790;51.538;6.736;2024-01-06T12:09:04;16.85;;;9.88;;
59930;SDS011;45790;51.538;6.736;2024-01-06T12:11:30;16.60;;;9.07;;
59930;SDS011;45790;51.538;6.736;2024-01-06T12:13:55;14.88;;;9.30;;
59930;SDS011;45790;51.538;6.736;2024-01-06T12:16:20;14.77;;;8.83;;
59930;SDS011;45790;51.538;6.736;2024-01-06T12:18:46;15.10;;;8.52;;
59930;SDS011;45790;51.538;6.736;2024-01-06T12:21:11;15.50;;;9.05;;
59930;SDS011;45790;51.538;6.736;2024-01-06T12:23:37;14.48;;;8.13;;
59930;SDS011;45790;51.538;6.736;2024-01-06T12:26:02;14.73;;;9.13;;
59930;SDS011;45790;51.538;6.736;2024-01-06T12:28:27;16.17;;;8.73;;
59930;SDS011;45790;51.538;6.736;2024-01-06T12:30:53;13.55;;;8.73;;
59930;SDS011;45790;51.538;6.736;2024-01-06T12:33:19;14.70;;;8.93;;
59930;SDS011;45790;51.538;6.736;2024-01-06T12:35:44;15.70;;;9.30;;
59930;SDS011;45790;51.538;6.736;2024-01-06T12:38:09;14.05;;;7.95;;
59930;SDS011;45790;51.538;6.736;2024-01-06T12:40:35;14.85;;;7.70;;
59930;SDS011;45790;51.538;6.736;2024-01-06T12:43:00;12.68;;;7.28;;
59930;SDS011;45790;51.538;6.736;2024-01-06T12:45:25;13.02;;;7.65;;
59930;SDS011;45790;51.538;6.736;2024-01-06T12:47:52;11.80;;;7.32;;
59930;SDS011;45790;51.538;6.736;2024-01-06T12:50:19;12.68;;;7.45;;
59930;SDS011;45790;51.538;6.736;2024-01-06T12:52:44;14.70;;;7.65;;
59930;SDS011;45790;51.538;6.736;2024-01-06T12:55:10;13.68;;;7.88;;
59930;SDS011;45790;51.538;6.736;2024-01-06T12:57:36;13.23;;;7.88;;
59930;SDS011;45790;51.538;6.736;2024-01-06T13:00:01;13.32;;;7.70;;
59930;SDS011;45790;51.538;6.736;2024-01-06T13:02:26;14.13;;;8.55;;
59930;SDS011;45790;51.538;6.736;2024-01-06T13:04:52;14.13;;;9.00;;
59930;SDS011;45790;51.538;6.736;2024-01-06T13:07:17;14.15;;;8.40;;
59930;SDS011;45790;51.538;6.736;2024-01-06T13:09:42;12.95;;;8.38;;
59930;SDS011;45790;51.538;6.736;2024-01-06T13:12:09;12.20;;;7.63;;
59930;SDS011;45790;51.538;6.736;2024-01-06T13:14:34;13.50;;;7.93;;
59930;SDS011;45790;51.538;6.736;2024-01-06T13:17:00;13.30;;;7.72;;
59930;SDS011;45790;51.538;6.736;2024-01-06T13:19:26;14.55;;;7.60;;
59930;SDS011;45790;51.538;6.736;2024-01-06T13:21:52;14.27;;;8.90;;
59930;SDS011;45790;51.538;6.736;2024-01-06T13:24:17;13.68;;;8.02;;
59930;SDS011;45790;51.538;6.736;2024-01-06T13:26:43;12.85;;;8.30;;
59930;SDS011;45790;51.538;6.736;2024-01-06T13:29:08;14.07;;;8.23;;
59930;SDS011;45790;51.538;6.736;2024-01-06T13:31:33;15.70;;;9.40;;
59930;SDS011;45790;51.538;6.736;2024-01-06T13:33:58;16.80;;;9.73;;
59930;SDS011;45790;51.538;6.736;2024-01-06T13:36:24;15.02;;;9.32;;
59930;SDS011;45790;51.538;6.736;2024-01-06T13:38:49;18.10;;;9.88;;
59930;SDS011;45790;51.538;6.736;2024-01-06T13:41:15;15.32;;;9.55;;
59930;SDS011;45790;51.538;6.736;2024-01-06T13:43:40;15.32;;;8.93;;
59930;SDS011;45790;51.538;6.736;2024-01-06T13:46:05;17.50;;;10.23;;
59930;SDS011;45790;51.538;6.736;2024-01-06T13:48:30;17.93;;;10.07;;
59930;SDS011;45790;51.538;6.736;2024-01-06T13:50:56;16.13;;;10.20;;
59930;SDS011;45790;51.538;6.736;2024-01-06T13:53:22;16.13;;;9.10;;
59930;SDS011;45790;51.538;6.736;2024-01-06T13:55:47;15.52;;;9.48;;
59930;SDS011;45790;51.538;6.736;2024-01-06T13:58:12;16.88;;;9.68;;
59930;SDS011;45790;51.538;6.736;2024-01-06T14:00:38;15.50;;;10.27;;
59930;SDS011;45790;51.538;6.736;2024-01-06T14:03:03;18.63;;;9.65;;
59930;SDS011;45790;51.538;6.736;2024-01-06T14:05:29;17.08;;;9.75;;
59930;SDS011;45790;51.538;6.736;2024-01-06T14:07:54;17.67;;;10.98;;
59930;SDS011;45790;51.538;6.736;2024-01-06T14:10:19;16.25;;;10.77;;
59930;SDS011;45790;51.538;6.736;2024-01-06T14:12:45;17.77;;;11.20;;
59930;SDS011;45790;51.538;6.736;2024-01-06T14:15:10;14.02;;;10.50;;
59930;SDS011;45790;51.538;6.736;2024-01-06T14:17:35;15.15;;;9.68;;
59930;SDS011;45790;51.538;6.736;2024-01-06T14:20:00;16.88;;;10.35;;
59930;SDS011;45790;51.538;6.736;2024-01-06T14:22:26;17.98;;;11.48;;
59930;SDS011;45790;51.538;6.736;2024-01-06T14:24:52;16.70;;;10.68;;
59930;SDS011;45790;51.538;6.736;2024-01-06T14:27:17;18.25;;;10.95;;
59930;SDS011;45790;51.538;6.736;2024-01-06T14:29:42;14.85;;;10.23;;